Overland Park, Kansas
Current Conditions -  °F | °C
As of 12:53 PM on Thursday 23 Oct 2014 (Local Time) from KOJC Reporting Station
Overcast Overcast  
Wind Chill: 63°   Ceiling: 1400
Heat Index: 63°   Visibility: 10mi
Dew Point: 59°   Wind: 7mph
Humidity: 87%   Direction: 230°SW
Pressure: 30.11"   Gusts: NA
Location:  38.98°N, 94.67°W
Report Text: KOJC 231753Z 23006KT 10SM OVC014 17/15 A3011 RMK AO2 SLP189 60007 T01720150 10178 20139 50003
Loading
Personal Weather Stations






























Interactive Weather Map
Tropical Storm Tracking
New forecast layout! Learn more

10-Day Weather Forecast

Advertisements
Track Severe Weather on mobile